Pageland, South Carolina
Current Conditions -  °F | °C
As of 2:53 PM on Wednesday 17 Dec 2014 (Local Time) from KEQY Reporting Station
Clear Clear  
Wind Chill: 59°   Ceiling: Unl
Heat Index: 59°   Visibility: 10mi
Dew Point: 36°   Wind: 6mph
Humidity: 42%   Direction: 240°WSW
Pressure: 30.04"   Gusts: NA
Location:  34.77°N, 80.39°W
Report Text: KEQY 171953Z AUTO 24005KT 10SM CLR 15/02 A3004 RMK AO2 SLP185 T01500022
Loading
Personal Weather Stations






























Interactive Weather Map New forecast layout! Learn more

10-Day Weather Forecast

Advertisements
Track Severe Weather on mobile